Time;durP1;ratioP1;P1;durP2;ratioP2;P2;SDS_P1;SDS_P2;PMS_P1;PMS_P2;Temp;Humidity;BMP_temperature;BMP_pressure;BME280_temperature;BME280_humidity;BME280_pressure;Samples;Min_cycle;Max_cycle;Signal;HPM_P1;HPM_P2
2022/12/31 17:47:01;;;;;;;6.70;3.70;;;17.80;99.90;;;;;;5130449;27;20363;-87
2022/12/31 17:49:30;;;;;;;6.63;4.70;;;17.70;99.90;;;;;;5127497;27;20418;-86
2022/12/31 17:51:57;;;;;;;5.65;3.70;;;17.10;99.90;;;;;;5107334;28;20398;-85
2022/12/31 17:54:23;;;;;;;6.00;3.63;;;16.90;99.90;;;;;;5107479;28;20910;-87
2022/12/31 17:56:49;;;;;;;5.53;3.17;;;16.70;99.90;;;;;;5126752;28;20366;-88
2022/12/31 17:59:21;;;;;;;5.05;3.42;;;16.50;99.90;;;;;;5106427;28;20378;-88
2022/12/31 18:01:47;;;;;;;3.85;3.17;;;16.50;99.90;;;;;;5107611;28;20959;-88
2022/12/31 18:04:14;;;;;;;4.18;2.50;;;16.60;99.90;;;;;;5107713;28;20462;-88
2022/12/31 18:06:40;;;;;;;3.67;2.08;;;16.60;99.90;;;;;;5121528;28;20395;-87
2022/12/31 18:09:06;;;;;;;4.68;2.67;;;16.60;99.90;;;;;;5116980;28;20395;-86
2022/12/31 18:11:34;;;;;;;4.70;2.38;;;16.50;99.90;;;;;;5087519;28;20889;-87
2022/12/31 18:13:59;;;;;;;4.63;2.50;;;16.40;99.90;;;;;;5087500;28;20376;-88
2022/12/31 18:16:25;;;;;;;5.63;2.33;;;16.30;99.90;;;;;;5105280;28;20421;-86
2022/12/31 18:18:50;;;;;;;5.68;3.00;;;16.30;99.90;;;;;;5088066;28;20372;-87
2022/12/31 18:21:31;;;;;;;5.03;3.20;;;16.20;99.90;;;;;;5087231;28;20890;-87
2022/12/31 18:23:58;;;;;;;5.38;3.20;;;16.20;99.90;;;;;;5089912;28;20380;-86
2022/12/31 18:26:24;;;;;;;8.05;4.72;;;16.10;99.90;;;;;;5107271;28;20396;-86
2022/12/31 18:28:51;;;;;;;8.13;5.28;;;16.00;99.90;;;;;;5088005;28;20490;-88
2022/12/31 18:31:22;;;;;;;6.70;4.32;;;16.00;99.90;;;;;;5088714;28;20376;-86
2022/12/31 18:33:49;;;;;;;8.50;5.57;;;16.00;99.90;;;;;;5106571;28;20364;-86
2022/12/31 18:36:17;;;;;;;5.57;3.60;;;15.90;99.90;;;;;;5106522;28;20376;-87
2022/12/31 18:38:43;;;;;;;6.70;4.47;;;15.90;99.90;;;;;;5107122;28;20383;-87
2022/12/31 18:41:21;;;;;;;8.03;5.70;;;15.90;99.90;;;;;;5107104;28;20373;-87
2022/12/31 18:43:47;;;;;;;6.17;4.00;;;15.80;99.90;;;;;;5106856;28;20383;-89
2022/12/31 18:46:16;;;;;;;6.13;3.70;;;15.80;99.90;;;;;;5107357;28;20408;-86
2022/12/31 18:48:42;;;;;;;6.85;4.93;;;15.80;99.90;;;;;;5088713;28;20460;-86
2022/12/31 18:51:19;;;;;;;8.27;4.45;;;15.80;99.90;;;;;;5088258;28;20862;-87
2022/12/31 18:53:45;;;;;;;5.53;3.90;;;15.70;99.90;;;;;;5088741;28;20382;-88
2022/12/31 18:56:19;;;;;;;5.07;2.87;;;15.70;99.90;;;;;;5086518;28;20380;-88
2022/12/31 18:58:45;;;;;;;4.90;3.60;;;15.50;99.90;;;;;;5094049;28;20388;-87
2022/12/31 19:01:25;;;;;;;18.98;15.15;;;15.80;99.90;;;;;;5093611;28;20368;-87
2022/12/31 19:03:50;;;;;;;8.65;5.85;;;15.80;99.90;;;;;;5074811;28;20380;-87
2022/12/31 19:06:17;;;;;;;9.63;8.13;;;15.80;99.90;;;;;;5093090;28;20423;-87
2022/12/31 19:08:43;;;;;;;23.93;16.17;;;15.90;99.90;;;;;;5075544;28;20373;-88
2022/12/31 19:11:13;;;;;;;23.67;16.67;;;15.80;99.90;;;;;;5094515;28;20368;-88
2022/12/31 19:13:39;;;;;;;14.00;9.25;;;15.80;99.90;;;;;;5075200;28;20468;-89
2022/12/31 19:16:06;;;;;;;10.55;6.40;;;15.80;99.90;;;;;;5074880;28;20376;-89
2022/12/31 19:18:32;;;;;;;7.78;5.95;;;15.80;99.90;;;;;;5075195;28;20381;-87
2022/12/31 19:20:58;;;;;;;7.93;4.80;;;15.80;99.90;;;;;;5074385;28;20377;-88
2022/12/31 19:23:24;;;;;;;6.72;4.78;;;15.90;99.90;;;;;;5094156;28;20406;-87
2022/12/31 19:25:50;;;;;;;6.70;4.80;;;15.90;99.90;;;;;;5076057;28;20392;-90
2022/12/31 19:28:19;;;;;;;9.35;5.95;;;15.80;99.90;;;;;;5074742;28;20393;-91
2022/12/31 19:30:45;;;;;;;7.40;4.80;;;15.60;99.90;;;;;;5073864;28;20475;-86
2022/12/31 19:33:12;;;;;;;7.72;4.95;;;15.60;99.90;;;;;;5074750;28;20469;-87
2022/12/31 19:35:38;;;;;;;7.73;4.87;;;15.70;99.90;;;;;;5074164;28;20387;-90
2022/12/31 19:38:10;;;;;;;6.03;4.53;;;14.90;99.90;;;;;;5074451;28;20376;-86
2022/12/31 19:40:36;;;;;;;8.93;6.20;;;15.60;99.90;;;;;;5092348;28;20377;-89
2022/12/31 19:43:01;;;;;;;6.83;4.50;;;15.60;99.90;;;;;;5074749;28;20380;-88
2022/12/31 19:45:28;;;;;;;8.07;5.57;;;15.50;99.90;;;;;;5073952;28;20496;-86
2022/12/31 19:47:57;;;;;;;16.17;11.77;;;15.50;99.90;;;;;;5074817;28;20398;-88
2022/12/31 19:50:27;;;;;;;8.20;6.63;;;15.60;99.90;;;;;;5074851;28;20383;-89
2022/12/31 19:52:56;;;;;;;10.02;6.20;;;15.50;99.90;;;;;;5074192;28;20434;-89
2022/12/31 19:55:25;;;;;;;9.32;6.97;;;15.50;99.90;;;;;;5074168;28;20726;-87
2022/12/31 19:57:51;;;;;;;6.55;4.63;;;15.50;99.90;;;;;;5075418;28;20392;-90
2022/12/31 20:00:19;;;;;;;7.18;4.95;;;15.40;99.90;;;;;;5075978;28;20383;-89
2022/12/31 20:02:47;;;;;;;5.40;4.15;;;15.30;99.90;;;;;;5092366;28;20947;-89
2022/12/31 20:05:15;;;;;;;6.80;4.88;;;15.40;99.90;;;;;;5074404;28;20435;-86
2022/12/31 20:07:41;;;;;;;13.35;9.52;;;15.40;99.90;;;;;;5075836;28;20462;-88
2022/12/31 20:10:07;;;;;;;7.55;6.05;;;15.30;99.90;;;;;;5091864;28;20387;-87
2022/12/31 20:12:33;;;;;;;7.70;6.22;;;15.40;99.90;;;;;;5075443;28;20376;-89
2022/12/31 20:14:59;;;;;;;7.38;5.88;;;15.40;99.90;;;;;;5079555;28;20361;-87
2022/12/31 20:17:25;;;;;;;7.60;5.40;;;15.40;99.90;;;;;;5074271;28;20431;-88
2022/12/31 20:19:51;;;;;;;6.57;4.47;;;15.30;99.90;;;;;;5094180;28;20911;-87
2022/12/31 20:22:17;;;;;;;4.72;3.38;;;15.40;99.90;;;;;;5091846;28;20380;-89
2022/12/31 20:24:43;;;;;;;9.57;6.95;;;15.50;99.90;;;;;;5073490;28;20684;-89
2022/12/31 20:27:09;;;;;;;6.25;4.20;;;15.50;99.90;;;;;;5091257;28;20403;-89
2022/12/31 20:29:35;;;;;;;6.40;4.10;;;15.60;99.90;;;;;;5091066;28;20409;-87
2022/12/31 20:32:01;;;;;;;6.13;4.55;;;15.60;99.90;;;;;;5090222;28;20364;-87
2022/12/31 20:34:27;;;;;;;6.38;4.78;;;15.60;99.90;;;;;;5091523;28;20465;-90
2022/12/31 20:36:55;;;;;;;6.10;3.97;;;15.60;99.90;;;;;;5072797;28;20773;-88
2022/12/31 20:39:21;;;;;;;5.85;3.70;;;15.70;99.90;;;;;;5090585;28;20364;-88
2022/12/31 20:41:50;;;;;;;4.90;3.07;;;15.70;99.90;;;;;;5072461;28;20454;-89
2022/12/31 20:44:16;;;;;;;4.13;3.30;;;14.70;99.90;;;;;;5071538;28;20412;-87
2022/12/31 20:46:41;;;;;;;6.27;3.10;;;15.70;99.90;;;;;;5089234;28;20412;-87
2022/12/31 20:49:10;;;;;;;5.97;3.22;;;15.70;99.90;;;;;;5071007;28;20376;-88
2022/12/31 20:51:35;;;;;;;30.67;24.35;;;15.70;99.90;;;;;;5088974;28;20384;-86
2022/12/31 20:54:06;;;;;;;8.43;5.47;;;15.80;99.90;;;;;;5071093;28;20404;-86
2022/12/31 20:56:34;;;;;;;7.03;4.93;;;15.90;99.90;;;;;;5091108;28;20704;-88
2022/12/31 20:59:04;;;;;;;6.90;3.60;;;15.90;99.90;;;;;;5070015;28;20379;-88
2022/12/31 21:01:30;;;;;;;8.27;5.40;;;16.00;99.90;;;;;;5071244;28;20384;-88
2022/12/31 21:03:57;;;;;;;6.38;3.97;;;16.00;99.90;;;;;;5071917;28;20410;-87
2022/12/31 21:06:23;;;;;;;7.07;3.95;;;16.00;99.90;;;;;;5089968;28;20404;-88
2022/12/31 21:08:49;;;;;;;6.77;4.00;;;16.00;99.90;;;;;;5090324;28;20383;-87
2022/12/31 21:13:59;;;;;;;5.25;3.90;;;16.10;99.90;;;;;;5089539;28;20465;-88
2022/12/31 21:16:26;;;;;;;4.55;3.47;;;15.90;99.90;;;;;;5089386;28;20382;-85
2022/12/31 21:18:53;;;;;;;6.10;3.58;;;16.00;99.90;;;;;;5089724;28;20377;-86
2022/12/31 21:21:18;;;;;;;5.70;3.20;;;16.00;99.90;;;;;;5070724;28;20394;-89
2022/12/31 21:23:44;;;;;;;6.93;3.20;;;16.00;99.90;;;;;;5071408;28;20396;-88
2022/12/31 21:26:10;;;;;;;4.63;3.20;;;16.00;99.90;;;;;;5072139;28;20483;-88
2022/12/31 21:28:35;;;;;;;6.15;3.30;;;16.00;99.90;;;;;;5069816;28;20396;-89
2022/12/31 21:31:04;;;;;;;6.13;4.00;;;16.10;99.90;;;;;;5071587;28;20376;-87
2022/12/31 21:33:30;;;;;;;6.00;3.60;;;16.10;99.90;;;;;;5089766;28;20455;-87
2022/12/31 21:35:56;;;;;;;7.40;4.30;;;16.00;99.90;;;;;;5071947;28;20822;-86
2022/12/31 21:38:21;;;;;;;6.53;3.33;;;15.90;99.90;;;;;;5089669;28;20372;-87
2022/12/31 21:40:47;;;;;;;6.22;3.30;;;15.90;99.90;;;;;;5071455;28;20442;-87
2022/12/31 21:43:14;;;;;;;7.18;3.70;;;15.90;99.90;;;;;;5088960;28;20472;-86
2022/12/31 21:45:40;;;;;;;6.40;4.00;;;16.00;99.90;;;;;;5088519;28;20910;-87
2022/12/31 21:48:19;;;;;;;6.78;3.60;;;15.90;99.90;;;;;;5089258;28;20458;-87
2022/12/31 21:51:03;;;;;;;6.03;4.30;;;15.90;99.90;;;;;;5089101;28;20395;-88
2022/12/31 21:53:29;;;;;;;5.68;3.15;;;15.90;99.90;;;;;;5070803;28;20377;-87
2022/12/31 21:56:07;;;;;;;5.57;3.10;;;16.00;99.90;;;;;;5071980;28;20387;-88
2022/12/31 21:58:33;;;;;;;5.10;3.83;;;16.10;99.90;;;;;;5072774;28;20464;-85
2022/12/31 22:03:44;;;;;;;5.53;3.65;;;16.00;99.90;;;;;;5091819;28;20384;-88
2022/12/31 22:06:21;;;;;;;5.47;2.63;;;16.00;99.90;;;;;;5073065;28;20404;-89
2022/12/31 22:08:49;;;;;;;5.80;3.45;;;16.00;99.90;;;;;;5091281;28;20392;-86
2022/12/31 22:11:16;;;;;;;6.57;3.58;;;16.00;99.90;;;;;;5089274;28;20371;-87
2022/12/31 22:13:45;;;;;;;4.30;3.00;;;16.00;99.90;;;;;;5070850;28;20779;-88
2022/12/31 22:16:12;;;;;;;6.40;3.95;;;15.30;99.90;;;;;;5089045;28;20842;-88
2022/12/31 22:18:41;;;;;;;37.35;28.23;;;16.00;99.90;;;;;;5088645;28;20388;-89
2022/12/31 22:21:18;;;;;;;5.20;3.42;;;15.90;99.90;;;;;;5088162;28;20379;-88
2022/12/31 22:23:46;;;;;;;4.90;2.63;;;15.90;99.90;;;;;;5088973;28;20387;-89
2022/12/31 22:26:15;;;;;;;3.67;2.20;;;15.90;99.90;;;;;;5071628;28;20457;-84
2022/12/31 22:28:42;;;;;;;4.30;2.50;;;15.90;99.90;;;;;;5088871;28;20403;-84
2022/12/31 22:31:13;;;;;;;6.75;3.22;;;15.90;99.90;;;;;;5069467;28;20746;-87
2022/12/31 22:33:38;;;;;;;5.30;2.50;;;15.90;99.90;;;;;;5092383;28;20376;-87
2022/12/31 22:36:09;;;;;;;3.80;2.45;;;15.80;99.90;;;;;;5092244;28;20372;-89
2022/12/31 22:38:34;;;;;;;7.55;3.70;;;15.90;99.90;;;;;;5073422;28;20461;-86
2022/12/31 22:41:01;;;;;;;5.05;2.72;;;15.80;99.90;;;;;;5092132;28;20459;-87
2022/12/31 22:43:27;;;;;;;7.05;3.00;;;15.80;99.90;;;;;;5079196;28;20380;-88
2022/12/31 22:45:52;;;;;;;9.57;3.00;;;15.80;99.90;;;;;;5073436;28;20481;-87
2022/12/31 22:48:18;;;;;;;4.10;2.60;;;15.80;99.90;;;;;;5074008;28;20389;-87
2022/12/31 22:50:52;;;;;;;4.18;2.00;;;15.80;99.90;;;;;;5073322;28;20380;-90
2022/12/31 22:53:18;;;;;;;5.97;3.07;;;15.80;99.90;;;;;;5073792;28;20388;-88
2022/12/31 22:55:44;;;;;;;7.53;4.68;;;15.80;99.90;;;;;;5091272;28;20380;-86
2022/12/31 22:58:09;;;;;;;5.33;2.70;;;15.70;99.90;;;;;;5091287;28;20513;-87
2022/12/31 23:00:40;;;;;;;8.20;3.67;;;15.70;99.90;;;;;;5072828;28;20392;-86
2022/12/31 23:03:06;;;;;;;39.90;23.47;;;15.70;99.90;;;;;;5091453;28;20881;-88
2022/12/31 23:05:33;;;;;;;58.33;41.42;;;15.60;99.90;;;;;;5072910;28;20432;-87
2022/12/31 23:07:59;;;;;;;45.85;32.70;;;15.60;99.90;;;;;;5074515;28;20376;-85
2022/12/31 23:24:06;;;;;;;67.43;49.53;;;15.40;99.90;;;;;;5092238;28;20444;-86
2022/12/31 23:26:32;;;;;;;72.78;54.40;;;15.40;99.90;;;;;;5072837;28;20408;-87
2022/12/31 23:28:59;;;;;;;39.50;29.03;;;15.50;99.90;;;;;;5089729;28;20930;-86
2022/12/31 23:31:27;;;;;;;33.38;22.45;;;15.50;99.90;;;;;;5090497;28;21560;-86
2022/12/31 23:33:54;;;;;;;30.80;21.52;;;15.50;99.90;;;;;;5090345;28;20388;-88
2022/12/31 23:36:19;;;;;;;36.92;27.20;;;15.60;99.90;;;;;;5091127;28;20364;-87
2022/12/31 23:38:45;;;;;;;21.83;13.67;;;15.50;99.90;;;;;;5073094;28;20413;-88
2022/12/31 23:41:13;;;;;;;25.05;17.95;;;15.50;99.90;;;;;;5091045;28;20365;-86
2022/12/31 23:43:38;;;;;;;11.18;7.38;;;15.50;99.90;;;;;;5073109;28;20429;-89
2022/12/31 23:46:04;;;;;;;13.00;7.80;;;15.40;99.90;;;;;;5072713;28;20499;-87
2022/12/31 23:48:30;;;;;;;17.70;11.37;;;15.50;99.90;;;;;;5073793;28;20376;-85
2022/12/31 23:50:55;;;;;;;12.25;7.93;;;15.40;99.90;;;;;;5072602;28;20444;-88
2022/12/31 23:53:22;;;;;;;11.97;7.77;;;15.40;99.90;;;;;;5073518;28;20889;-89
2022/12/31 23:55:48;;;;;;;13.45;9.35;;;15.40;99.90;;;;;;5072541;28;20415;-86
2022/12/31 23:58:14;;;;;;;10.60;7.57;;;15.50;99.90;;;;;;5071967;28;20481;-87
